Time;durP1;ratioP1;P1;durP2;ratioP2;P2;SDS_P1;SDS_P2;PMS_P1;PMS_P2;Temp;Humidity;BMP_temperature;BMP_pressure;BME280_temperature;BME280_humidity;BME280_pressure;Samples;Min_cycle;Max_cycle;Signal;HPM_P1;HPM_P2
2023/10/20 00:04:03;;;;;;;30.80;18.00;;;;;;;7.12;88.10;98016.08;218746;1261;141353;-70
2023/10/20 00:09:18;;;;;;;33.40;19.70;;;;;;;7.13;88.45;98014.61;217564;1260;140846;-69
2023/10/20 00:14:23;;;;;;;27.10;20.00;;;;;;;7.16;88.24;97983.20;217762;1262;140550;-67
2023/10/20 00:19:28;;;;;;;27.60;20.10;;;;;;;7.17;88.11;97975.52;217813;1262;139896;-70
2023/10/20 00:24:33;;;;;;;27.30;16.50;;;;;;;7.16;88.16;97951.71;218214;1262;140941;-70
2023/10/20 00:29:37;;;;;;;35.10;17.70;;;;;;;7.14;88.00;97937.93;218790;1261;151551;-69
2023/10/20 00:34:42;;;;;;;24.40;16.40;;;;;;;7.14;88.18;97931.25;218691;1259;141060;-68
2023/10/20 00:39:46;;;;;;;26.20;16.30;;;;;;;7.15;88.52;97939.38;217935;1259;141906;-68
2023/10/20 00:44:53;;;;;;;24.70;15.50;;;;;;;7.14;88.32;97930.20;218860;1259;140030;-68
2023/10/20 00:49:59;;;;;;;24.70;16.20;;;;;;;7.13;88.41;97918.58;218549;1259;140206;-67
2023/10/20 00:55:08;;;;;;;26.00;16.50;;;;;;;7.11;88.56;97919.90;217538;1262;139775;-69
2023/10/20 01:00:13;;;;;;;26.20;16.30;;;;;;;7.11;88.41;97927.15;219127;1259;140020;-68
2023/10/20 01:05:24;;;;;;;28.50;15.40;;;;;;;7.10;88.26;97922.33;217582;1259;140207;-69
2023/10/20 01:10:29;;;;;;;26.30;16.20;;;;;;;7.11;88.50;97914.43;217490;1262;140374;-67
2023/10/20 01:15:37;;;;;;;25.00;15.30;;;;;;;7.10;88.64;97912.68;218510;1260;140618;-67
2023/10/20 01:20:41;;;;;;;;;;;;;;;7.09;88.56;97919.14;217669;1260;141046;-68
2023/10/20 01:25:45;;;;;;;24.20;14.70;;;;;;;7.07;88.98;97921.63;218361;1262;126414;-67
2023/10/20 01:30:51;;;;;;;25.20;15.70;;;;;;;7.08;88.62;97922.20;217660;1262;140514;-67
2023/10/20 01:35:55;;;;;;;29.70;16.70;;;;;;;7.06;88.74;97906.19;217674;1260;140025;-67
2023/10/20 01:41:01;;;;;;;28.40;18.50;;;;;;;7.06;88.77;97911.96;218246;1262;140408;-70
2023/10/20 01:46:05;;;;;;;26.20;16.80;;;;;;;7.07;88.91;97883.63;217441;1260;139768;-68
2023/10/20 01:51:09;;;;;;;28.10;17.00;;;;;;;7.09;89.35;97876.48;218664;1259;140619;-67
2023/10/20 01:56:15;;;;;;;33.60;19.60;;;;;;;7.09;89.01;97866.77;217830;1259;140096;-67
2023/10/20 02:01:22;;;;;;;33.60;18.30;;;;;;;7.07;88.89;97849.72;219637;1259;140317;-68
2023/10/20 02:06:28;;;;;;;31.10;19.60;;;;;;;7.07;89.04;97854.27;219399;1258;140877;-67
2023/10/20 02:11:32;;;;;;;31.50;19.40;;;;;;;7.10;88.95;97848.61;219417;1259;140549;-69
2023/10/20 02:16:37;;;;;;;29.80;19.00;;;;;;;7.12;89.06;97850.05;219737;1259;140297;-68
2023/10/20 02:21:42;;;;;;;28.80;16.90;;;;;;;7.14;88.67;97859.56;218540;1262;423522;-68
2023/10/20 02:26:48;;;;;;;26.60;16.00;;;;;;;7.17;89.11;97875.73;219842;1258;141052;-69
2023/10/20 02:31:52;;;;;;;31.50;18.00;;;;;;;7.19;89.05;97874.42;217728;1261;140162;-70
2023/10/20 02:36:57;;;;;;;30.10;15.90;;;;;;;7.20;89.12;97870.13;218744;1260;140837;-67
2023/10/20 02:42:01;;;;;;;32.70;20.80;;;;;;;7.20;89.36;97863.24;218790;1262;141279;-67
2023/10/20 02:47:05;;;;;;;27.40;16.50;;;;;;;7.19;89.41;97860.16;218784;1260;139958;-67
2023/10/20 02:52:13;;;;;;;33.30;18.80;;;;;;;7.20;89.38;97844.33;218013;1262;165300;-67
2023/10/20 02:57:17;;;;;;;38.50;18.30;;;;;;;7.20;89.14;97843.90;218099;1260;139825;-68
2023/10/20 03:02:22;;;;;;;29.10;18.00;;;;;;;7.19;89.59;97842.05;218062;1262;139856;-67
2023/10/20 03:07:27;;;;;;;35.00;17.40;;;;;;;7.17;89.43;97851.36;217318;1262;140390;-67
2023/10/20 03:12:32;;;;;;;51.60;18.90;;;;;;;7.14;89.33;97857.43;217778;1260;140024;-67
2023/10/20 03:17:36;;;;;;;47.20;18.30;;;;;;;7.10;89.23;97874.48;217293;1262;140090;-68
2023/10/20 03:22:42;;;;;;;32.70;18.90;;;;;;;7.06;89.33;97884.73;218100;1259;139829;-68
2023/10/20 03:27:50;;;;;;;35.30;19.20;;;;;;;7.06;89.70;97902.01;217408;1260;141797;-67
2023/10/20 03:32:55;;;;;;;28.80;16.90;;;;;;;7.06;89.99;97887.96;218152;1259;139991;-67
2023/10/20 03:38:00;;;;;;;30.20;16.90;;;;;;;7.06;89.96;97869.95;217994;1259;140054;-67
2023/10/20 03:43:05;;;;;;;36.60;18.50;;;;;;;7.05;90.00;97850.50;217945;1262;139816;-67
2023/10/20 03:48:09;;;;;;;29.20;17.10;;;;;;;7.05;90.06;97854.15;218333;1262;140409;-67
2023/10/20 03:53:22;;;;;;;26.80;15.50;;;;;;;7.06;90.37;97840.55;217172;1262;139835;-67
2023/10/20 03:58:29;;;;;;;29.90;16.80;;;;;;;7.08;90.39;97836.52;219174;1260;141460;-68
2023/10/20 04:03:33;;;;;;;30.40;16.00;;;;;;;7.10;90.26;97839.88;219999;1263;139921;-68
2023/10/20 04:08:38;;;;;;;30.40;16.90;;;;;;;7.12;90.23;97848.52;219510;1260;140827;-68
2023/10/20 04:13:44;;;;;;;35.70;17.10;;;;;;;7.17;90.49;97860.73;220048;1258;140362;-69
2023/10/20 04:18:48;;;;;;;28.70;16.40;;;;;;;7.21;90.40;97860.60;219952;1259;140339;-67
2023/10/20 04:23:52;;;;;;;37.60;17.20;;;;;;;7.25;90.40;97853.98;220034;1259;152479;-68
2023/10/20 04:45:19;;;;;;;131.50;23.20;;;;;;;7.27;89.97;97820.98;217566;1260;139729;-67
2023/10/20 04:50:56;;;;;;;58.40;18.70;;;;;;;7.25;90.18;97819.55;217644;1261;139956;-68
2023/10/20 05:01:28;;;;;;;33.00;16.70;;;;;;;7.16;90.35;97822.73;218792;1261;140498;-67
2023/10/20 05:06:42;;;;;;;40.30;17.40;;;;;;;7.15;90.72;97827.45;218196;1260;140826;-67
2023/10/20 05:11:49;;;;;;;30.10;16.00;;;;;;;7.16;90.98;97836.41;217540;1258;140413;-67
2023/10/20 05:16:55;;;;;;;23.30;14.80;;;;;;;7.18;90.91;97852.27;217492;1261;141709;-67
2023/10/20 05:22:00;;;;;;;23.80;16.10;;;;;;;7.19;91.26;97861.70;217872;1257;140526;-67
2023/10/20 05:27:04;;;;;;;22.60;12.20;;;;;;;7.21;91.40;97866.16;217692;1258;140036;-68
2023/10/20 05:32:09;;;;;;;33.90;18.70;;;;;;;7.20;91.30;97864.14;217639;1257;208026;-67
2023/10/20 05:37:15;;;;;;;25.60;13.90;;;;;;;7.22;91.39;97857.32;218662;1261;139996;-67
2023/10/20 05:42:19;;;;;;;38.10;17.10;;;;;;;7.25;91.65;97860.89;218822;1257;140155;-68
2023/10/20 05:47:25;;;;;;;44.10;15.80;;;;;;;7.29;91.35;97852.22;218293;1258;141810;-68
2023/10/20 05:52:30;;;;;;;60.20;17.90;;;;;;;7.33;91.59;97857.30;217421;1257;139826;-67
2023/10/20 05:57:35;;;;;;;21.60;13.70;;;;;;;7.36;91.62;97870.93;219850;1257;140019;-68
2023/10/20 06:02:41;;;;;;;21.80;14.60;;;;;;;7.40;91.71;97873.29;218191;1258;142240;-68
2023/10/20 06:07:45;;;;;;;23.40;13.80;;;;;;;7.42;91.32;97856.75;220162;1257;139973;-68
2023/10/20 06:12:54;;;;;;;27.70;15.60;;;;;;;7.44;91.57;97852.10;220186;1257;140414;-68
2023/10/20 06:17:59;;;;;;;20.50;14.20;;;;;;;7.49;91.15;97859.91;220204;1257;140497;-68
2023/10/20 06:23:03;;;;;;;24.00;12.70;;;;;;;7.54;91.41;97860.04;219533;1257;141299;-68
2023/10/20 06:28:07;;;;;;;24.10;14.30;;;;;;;7.57;91.20;97847.91;220055;1257;141914;-68
2023/10/20 06:38:40;;;;;;;36.70;16.50;;;;;;;7.64;91.14;97846.37;218566;1257;141469;-67
2023/10/20 06:43:48;;;;;;;27.00;15.00;;;;;;;7.65;91.39;97849.34;218188;1257;140199;-67
2023/10/20 06:48:52;;;;;;;27.00;13.90;;;;;;;7.66;91.32;97838.67;218713;1257;141345;-67
2023/10/20 06:53:57;;;;;;;29.00;15.30;;;;;;;7.65;91.26;97821.92;218384;1257;141198;-67
2023/10/20 06:59:03;;;;;;;20.50;13.60;;;;;;;7.66;91.61;97819.31;217648;1260;140459;-67
2023/10/20 07:04:10;;;;;;;27.80;16.60;;;;;;;7.68;91.71;97818.75;218264;1257;139750;-67
2023/10/20 07:09:17;;;;;;;27.70;15.10;;;;;;;7.71;91.61;97827.83;217571;1260;139882;-67
2023/10/20 07:14:21;;;;;;;21.70;13.30;;;;;;;7.74;91.83;97835.10;217760;1260;141389;-67
2023/10/20 07:19:26;;;;;;;24.20;14.50;;;;;;;7.79;91.71;97830.18;217745;1259;221564;-67
2023/10/20 07:24:33;;;;;;;;;;;;;;;7.84;91.84;97818.09;217661;1261;141008;-67
2023/10/20 07:29:38;;;;;;;27.80;14.80;;;;;;;7.85;91.96;97793.95;217778;1259;125990;-67
2023/10/20 07:34:48;;;;;;;29.60;14.50;;;;;;;7.90;92.20;97787.92;218393;1259;142507;-68
2023/10/20 07:39:55;;;;;;;29.60;14.80;;;;;;;7.95;92.10;97791.73;217599;1259;139988;-67
2023/10/20 07:45:00;;;;;;;34.20;16.90;;;;;;;7.97;91.96;97791.56;219119;1259;141653;-68
2023/10/20 07:50:06;;;;;;;23.50;13.00;;;;;;;8.01;92.15;97796.98;217876;1259;140418;-67
2023/10/20 07:55:10;;;;;;;30.70;14.70;;;;;;;8.09;92.23;97796.25;218493;1259;142218;-67
2023/10/20 08:00:15;;;;;;;27.10;13.90;;;;;;;8.16;92.24;97774.43;218484;1258;141267;-67
2023/10/20 08:05:19;;;;;;;27.80;14.20;;;;;;;8.19;92.02;97761.27;220016;1257;141506;-68
2023/10/20 08:10:24;;;;;;;30.90;15.30;;;;;;;8.20;92.00;97765.25;220216;1257;140831;-67
2023/10/20 08:15:29;;;;;;;25.60;13.30;;;;;;;8.26;91.85;97762.80;220095;1257;140355;-67
2023/10/20 08:20:34;;;;;;;23.30;15.10;;;;;;;8.33;91.76;97772.89;218526;1262;140779;-67
2023/10/20 08:25:40;;;;;;;32.70;15.20;;;;;;;8.36;91.67;97765.35;218294;1261;140836;-67
2023/10/20 08:30:46;;;;;;;;;;;;;;;8.41;91.85;97763.07;218844;1257;139854;-66
2023/10/20 08:35:54;;;;;;;28.40;14.80;;;;;;;8.43;91.88;97766.67;219527;1257;126235;-67
2023/10/20 08:41:01;;;;;;;26.10;13.30;;;;;;;8.49;91.89;97765.77;218476;1257;140201;-67
2023/10/20 08:46:18;;;;;;;26.00;16.80;;;;;;;8.54;91.84;97757.15;218164;1262;139936;-67
2023/10/20 08:51:23;;;;;;;26.90;15.90;;;;;;;8.62;91.99;97762.69;218355;1258;139996;-67
2023/10/20 08:56:28;;;;;;;22.00;14.50;;;;;;;8.69;91.95;97769.27;217740;1257;141217;-67
2023/10/20 09:01:33;;;;;;;27.00;13.30;;;;;;;8.75;91.83;97771.59;217888;1257;140413;-66
2023/10/20 09:06:39;;;;;;;24.80;13.50;;;;;;;8.79;91.90;97756.55;217721;1257;141346;-67
2023/10/20 09:11:43;;;;;;;26.60;11.80;;;;;;;8.84;92.08;97738.30;218550;1257;161817;-67
2023/10/20 09:16:48;;;;;;;23.50;14.90;;;;;;;8.89;91.94;97725.35;217288;1257;139997;-67
2023/10/20 09:21:57;;;;;;;18.30;14.10;;;;;;;8.93;91.85;97735.91;217707;1258;139926;-68
2023/10/20 09:27:07;;;;;;;27.70;16.00;;;;;;;8.95;91.91;97747.91;218279;1257;140636;-67
2023/10/20 09:32:13;;;;;;;24.80;14.60;;;;;;;8.98;91.79;97751.30;217610;1260;140086;-67
2023/10/20 09:37:22;;;;;;;20.10;12.60;;;;;;;9.03;91.81;97747.35;219226;1257;142059;-67
2023/10/20 09:42:27;;;;;;;23.20;14.40;;;;;;;9.08;91.76;97737.17;218504;1258;140481;-67
2023/10/20 09:47:36;;;;;;;24.30;14.90;;;;;;;9.15;91.73;97723.44;219524;1257;140219;-68
2023/10/20 09:52:42;;;;;;;24.00;14.60;;;;;;;9.18;91.52;97714.52;218554;1257;141991;-67
2023/10/20 09:57:47;;;;;;;16.20;10.40;;;;;;;9.12;91.18;97703.20;218792;1257;140764;-67
2023/10/20 10:02:58;;;;;;;20.50;12.90;;;;;;;9.04;90.75;97703.66;219840;1257;140588;-68
2023/10/20 10:08:08;;;;;;;20.90;14.00;;;;;;;8.99;91.03;97693.80;219481;1259;141372;-68
2023/10/20 10:13:12;;;;;;;22.60;14.70;;;;;;;8.99;90.80;97684.17;219626;1259;140651;-68
2023/10/20 10:18:17;;;;;;;23.60;14.50;;;;;;;8.98;90.74;97671.05;217483;1259;142474;-67
2023/10/20 10:23:28;;;;;;;22.40;15.40;;;;;;;8.96;90.77;97662.18;219429;1258;140821;-68
2023/10/20 10:28:34;;;;;;;18.90;14.80;;;;;;;8.92;90.40;97653.38;217776;1259;140038;-67
2023/10/20 10:33:42;;;;;;;20.00;12.70;;;;;;;8.88;90.54;97651.83;218463;1259;140523;-68
2023/10/20 10:38:48;;;;;;;24.00;14.70;;;;;;;8.83;90.34;97654.14;218234;1259;140761;-67
2023/10/20 10:43:54;;;;;;;24.20;14.10;;;;;;;8.75;90.39;97656.78;218383;1259;140325;-66
2023/10/20 10:49:10;;;;;;;19.80;13.60;;;;;;;8.73;90.75;97665.66;217741;1259;140146;-67
2023/10/20 10:54:17;;;;;;;17.10;12.00;;;;;;;8.69;90.61;97664.45;217857;1259;142650;-66
2023/10/20 10:59:22;;;;;;;21.80;14.70;;;;;;;8.61;90.56;97655.66;218317;1259;142067;-68
2023/10/20 11:04:28;;;;;;;16.80;11.40;;;;;;;8.58;90.61;97641.13;218288;1259;141945;-68
2023/10/20 11:09:33;;;;;;;20.80;13.80;;;;;;;8.58;90.71;97633.69;218253;1259;140807;-67
2023/10/20 11:14:39;;;;;;;20.10;13.50;;;;;;;8.58;90.78;97631.56;217951;1258;140067;-68
2023/10/20 11:19:45;;;;;;;21.30;13.30;;;;;;;8.53;90.64;97632.30;218402;1258;141237;-67
2023/10/20 11:24:54;;;;;;;16.00;13.30;;;;;;;8.51;90.95;97638.73;218767;1258;140496;-67
2023/10/20 11:29:58;;;;;;;19.60;13.80;;;;;;;8.53;90.89;97638.89;218193;1257;140378;-68
2023/10/20 11:35:04;;;;;;;17.00;12.60;;;;;;;8.51;90.91;97646.27;218655;1257;139898;-68
2023/10/20 11:40:09;;;;;;;18.90;13.90;;;;;;;8.46;90.73;97650.27;218755;1257;140119;-67
2023/10/20 11:45:16;;;;;;;18.60;14.50;;;;;;;8.43;90.85;97648.95;218680;1257;140229;-68
2023/10/20 11:50:23;;;;;;;15.70;11.40;;;;;;;8.41;90.94;97654.20;219971;1257;140969;-68
2023/10/20 11:55:27;;;;;;;19.40;12.60;;;;;;;8.41;91.08;97666.58;220073;1257;140244;-67
2023/10/20 12:00:32;;;;;;;38.10;14.70;;;;;;;8.40;90.94;97677.41;219586;1259;140281;-67
2023/10/20 12:05:39;;;;;;;14.90;11.80;;;;;;;8.42;91.08;97682.77;218565;1257;139902;-67
2023/10/20 12:10:47;;;;;;;18.40;12.30;;;;;;;8.41;91.07;97689.09;218723;1257;139947;-67
2023/10/20 12:15:52;;;;;;;23.20;16.80;;;;;;;8.42;91.29;97708.63;219898;1257;140057;-67
2023/10/20 12:20:57;;;;;;;33.20;15.30;;;;;;;8.41;91.19;97712.73;218853;1258;143644;-67
2023/10/20 12:26:03;;;;;;;23.70;14.50;;;;;;;8.39;91.37;97718.20;218093;1258;141697;-66
2023/10/20 12:31:08;;;;;;;21.50;15.30;;;;;;;8.40;91.57;97708.73;218682;1258;141120;-67
2023/10/20 12:36:13;;;;;;;26.30;15.90;;;;;;;8.38;91.73;97693.67;219229;1258;140357;-67
2023/10/20 12:41:18;;;;;;;31.00;14.40;;;;;;;8.37;91.60;97668.40;218164;1257;140020;-67
2023/10/20 12:46:22;;;;;;;22.40;15.20;;;;;;;8.35;91.91;97657.20;219177;1257;139973;-67
2023/10/20 12:51:28;;;;;;;20.50;14.70;;;;;;;8.33;91.62;97653.58;218545;1257;159835;-67
2023/10/20 12:56:33;;;;;;;30.30;14.90;;;;;;;8.29;91.63;97637.55;217610;1258;140710;-66
2023/10/20 13:01:38;;;;;;;19.80;11.20;;;;;;;8.26;91.74;97629.81;218198;1257;140517;-69
2023/10/20 13:06:43;;;;;;;21.50;14.00;;;;;;;8.25;91.74;97621.98;217875;1257;139993;-67
2023/10/20 13:12:03;;;;;;;19.70;13.70;;;;;;;8.24;92.13;97604.19;218565;1258;139896;-67
2023/10/20 13:17:07;;;;;;;19.80;13.10;;;;;;;8.22;91.84;97596.77;218323;1259;141517;-66
2023/10/20 13:22:12;;;;;;;19.80;12.70;;;;;;;8.20;91.89;97587.38;218639;1258;140373;-68
2023/10/20 13:27:17;;;;;;;20.30;13.80;;;;;;;8.20;92.25;97582.08;218099;1259;140439;-73
2023/10/20 13:32:23;;;;;;;20.30;12.70;;;;;;;8.17;91.89;97588.55;218876;1258;140583;-73
2023/10/20 13:37:28;;;;;;;17.40;11.00;;;;;;;8.15;91.81;97584.31;217352;1257;140690;-67
2023/10/20 13:42:32;;;;;;;18.50;12.20;;;;;;;8.15;92.31;97599.98;218613;1260;140092;-69
2023/10/20 13:47:37;;;;;;;13.50;10.00;;;;;;;8.15;92.16;97601.94;219743;1257;141301;-67
2023/10/20 13:52:41;;;;;;;19.90;11.40;;;;;;;8.13;92.37;97599.29;218674;1259;141097;-68
2023/10/20 13:57:47;;;;;;;13.50;9.20;;;;;;;8.13;92.42;97606.45;219431;1257;235468;-69
2023/10/20 14:02:53;;;;;;;18.70;12.20;;;;;;;8.13;92.33;97626.41;219121;1257;139897;-68
2023/10/20 14:08:02;;;;;;;14.50;10.80;;;;;;;8.14;92.43;97636.33;218699;1257;140042;-68
2023/10/20 14:13:06;;;;;;;17.60;11.50;;;;;;;8.15;92.24;97626.98;217537;1258;140279;-69
2023/10/20 14:18:12;;;;;;;20.00;13.70;;;;;;;8.10;92.22;97627.27;218275;1257;503655;-69
2023/10/20 14:23:21;;;;;;;16.00;11.80;;;;;;;8.05;92.06;97626.47;217492;1257;140505;-71
2023/10/20 14:28:33;;;;;;;17.80;12.60;;;;;;;8.01;92.30;97625.37;218520;1257;140391;-70
2023/10/20 14:33:38;;;;;;;17.50;13.70;;;;;;;7.96;92.33;97616.36;218383;1261;140670;-69
2023/10/20 14:38:43;;;;;;;19.70;11.20;;;;;;;7.92;92.22;97608.01;218400;1257;140028;-70
2023/10/20 14:43:48;;;;;;;17.00;11.90;;;;;;;7.91;92.83;97607.48;217742;1258;140750;-68
2023/10/20 14:48:53;;;;;;;19.30;11.00;;;;;;;7.90;92.71;97603.81;217339;1257;140173;-70
2023/10/20 14:53:58;;;;;;;17.20;11.10;;;;;;;7.85;92.79;97602.23;217527;1259;140100;-70
2023/10/20 14:59:03;;;;;;;16.70;11.90;;;;;;;7.83;92.79;97605.95;217783;1262;140040;-70
2023/10/20 15:04:08;;;;;;;14.50;10.90;;;;;;;7.82;92.86;97606.27;218025;1259;140233;-69
2023/10/20 15:09:34;;;;;;;15.50;12.40;;;;;;;7.80;92.61;97607.80;219301;1259;140100;-72
2023/10/20 15:14:42;;;;;;;21.50;12.00;;;;;;;7.78;92.89;97610.77;217933;1259;141809;-71
2023/10/20 15:19:52;;;;;;;14.20;11.40;;;;;;;7.76;92.79;97617.84;217667;1258;141205;-68
2023/10/20 15:25:04;;;;;;;16.10;12.80;;;;;;;7.74;92.84;97616.88;218932;1259;140076;-69
2023/10/20 15:30:10;;;;;;;13.00;10.80;;;;;;;7.74;92.96;97621.86;218536;1259;141293;-69
2023/10/20 15:35:20;;;;;;;15.40;12.30;;;;;;;7.74;92.78;97617.57;218707;1259;139919;-69
2023/10/20 15:40:24;;;;;;;16.80;10.00;;;;;;;7.76;92.73;97619.48;218917;1259;142232;-69
2023/10/20 15:45:28;;;;;;;17.20;10.70;;;;;;;7.74;92.56;97627.02;218162;1259;140141;-69
2023/10/20 15:50:32;;;;;;;15.10;11.10;;;;;;;7.71;92.46;97630.52;216934;1259;140089;-69
2023/10/20 15:55:42;;;;;;;17.10;8.20;;;;;;;7.68;92.55;97641.12;220071;1259;141449;-69
2023/10/20 16:00:46;;;;;;;12.90;9.10;;;;;;;7.66;92.46;97633.70;219891;1259;139735;-69
2023/10/20 16:05:51;;;;;;;12.40;9.40;;;;;;;7.67;92.57;97628.66;219622;1257;139690;-69
2023/10/20 16:10:56;;;;;;;8.40;6.80;;;;;;;7.67;92.44;97626.64;218745;1258;141912;-69
2023/10/20 16:16:00;;;;;;;12.70;9.00;;;;;;;7.63;92.33;97627.89;218424;1257;139709;-69
2023/10/20 16:21:05;;;;;;;12.70;8.90;;;;;;;7.61;92.39;97626.73;219353;1259;141525;-68
2023/10/20 16:26:11;;;;;;;24.00;8.40;;;;;;;7.60;92.53;97624.93;218140;1261;140081;-68
2023/10/20 16:31:15;;;;;;;10.90;8.70;;;;;;;7.58;92.35;97622.86;218086;1259;140740;-69
2023/10/20 16:36:19;;;;;;;10.00;8.10;;;;;;;7.56;92.74;97618.55;217482;1261;140763;-68
2023/10/20 16:41:30;;;;;;;11.90;8.40;;;;;;;7.51;92.65;97618.83;218031;1260;140690;-68
2023/10/20 16:46:39;;;;;;;20.30;12.70;;;;;;;7.46;92.63;97618.45;218519;1259;139961;-68
2023/10/20 16:51:47;;;;;;;48.10;24.70;;;;;;;7.44;92.19;97619.94;217271;1261;140435;-68
2023/10/20 16:56:54;;;;;;;15.90;10.00;;;;;;;7.44;92.71;97622.59;219873;1257;142128;-70
2023/10/20 17:02:07;;;;;;;14.60;9.20;;;;;;;7.43;92.82;97614.11;217870;1262;139800;-70
2023/10/20 17:07:17;;;;;;;;;;;;;;;7.42;92.72;97609.39;217232;1260;139881;-70
2023/10/20 17:12:24;;;;;;;11.20;7.50;;;;;;;7.40;92.83;97602.61;219144;1261;127840;-70
2023/10/20 17:17:30;;;;;;;8.00;7.20;;;;;;;7.39;92.47;97596.92;218791;1258;140769;-70
2023/10/20 17:22:36;;;;;;;8.30;7.40;;;;;;;7.38;92.65;97588.23;219059;1259;140630;-71
2023/10/20 17:27:42;;;;;;;6.90;4.70;;;;;;;7.37;92.30;97586.48;219010;1259;139743;-68
2023/10/20 17:32:51;;;;;;;7.80;6.10;;;;;;;7.35;92.66;97584.00;218148;1259;140357;-69
2023/10/20 17:37:57;;;;;;;6.10;4.60;;;;;;;7.33;92.42;97581.30;218418;1259;139554;-70
2023/10/20 17:43:03;;;;;;;8.40;6.00;;;;;;;7.32;92.70;97579.83;218391;1259;139432;-70
2023/10/20 17:48:07;;;;;;;9.50;6.10;;;;;;;7.32;92.85;97578.77;219901;1258;140550;-70
2023/10/20 17:53:12;;;;;;;7.80;5.60;;;;;;;7.30;92.67;97576.02;220013;1257;140148;-70
2023/10/20 17:58:17;;;;;;;7.10;5.40;;;;;;;7.29;92.41;97571.93;219741;1260;139961;-70
2023/10/20 18:03:21;;;;;;;6.10;5.50;;;;;;;7.31;92.54;97575.11;220019;1258;140308;-70
2023/10/20 18:08:25;;;;;;;7.30;5.30;;;;;;;7.35;92.71;97573.02;220053;1257;139870;-70
2023/10/20 18:13:31;;;;;;;9.60;5.70;;;;;;;7.39;92.58;97573.75;218361;1258;139630;-69
2023/10/20 18:18:38;;;;;;;8.40;6.20;;;;;;;7.41;92.83;97596.18;218931;1259;140651;-71
2023/10/20 18:23:43;;;;;;;9.80;7.40;;;;;;;7.42;92.65;97600.48;218710;1260;139917;-69
2023/10/20 18:28:49;;;;;;;6.80;6.10;;;;;;;7.43;92.48;97591.79;218001;1261;139734;-67
2023/10/20 18:33:58;;;;;;;13.10;7.10;;;;;;;7.42;92.53;97594.38;217626;1260;141386;-67
2023/10/20 18:39:06;;;;;;;8.50;6.90;;;;;;;7.41;92.62;97592.31;219033;1259;140649;-68
2023/10/20 18:44:11;;;;;;;6.60;6.00;;;;;;;7.40;92.75;97588.60;217238;1257;139956;-69
2023/10/20 18:49:14;;;;;;;8.90;7.80;;;;;;;7.39;92.45;97581.81;218502;1257;139320;-70
2023/10/20 18:54:21;;;;;;;8.70;7.30;;;;;;;7.39;93.04;97575.35;217682;1260;140463;-69
2023/10/20 18:59:26;;;;;;;9.50;7.10;;;;;;;7.38;93.10;97582.08;218199;1260;139536;-69
2023/10/20 19:04:31;;;;;;;8.60;7.20;;;;;;;7.39;92.79;97583.52;218464;1260;139913;-69
2023/10/20 19:09:37;;;;;;;13.00;6.70;;;;;;;7.38;93.19;97584.09;218054;1259;140325;-69
2023/10/20 19:14:47;;;;;;;9.20;7.30;;;;;;;7.39;93.34;97584.36;218648;1261;141067;-68
2023/10/20 19:19:56;;;;;;;10.90;7.00;;;;;;;7.41;93.16;97581.86;217578;1259;141056;-68
2023/10/20 19:25:02;;;;;;;9.80;7.30;;;;;;;7.41;93.11;97579.27;218363;1258;140992;-72
2023/10/20 19:30:07;;;;;;;12.10;7.70;;;;;;;7.42;93.41;97565.49;218087;1257;139618;-69
2023/10/20 19:35:13;;;;;;;10.10;7.20;;;;;;;7.44;93.63;97558.70;218627;1259;141354;-69
2023/10/20 19:40:20;;;;;;;13.90;8.80;;;;;;;7.48;93.45;97548.67;218823;1260;141666;-69
2023/10/20 19:45:26;;;;;;;11.10;8.60;;;;;;;7.49;93.64;97554.20;217834;1260;139566;-68
2023/10/20 19:50:31;;;;;;;13.80;9.70;;;;;;;7.49;93.65;97557.80;218619;1260;141215;-69
2023/10/20 19:55:38;;;;;;;8.30;6.30;;;;;;;7.48;93.39;97554.30;219583;1258;139777;-68
2023/10/20 20:00:44;;;;;;;9.40;8.00;;;;;;;7.48;93.71;97558.76;219967;1259;141955;-70
2023/10/20 20:05:49;;;;;;;17.60;9.90;;;;;;;7.48;93.94;97563.05;219020;1257;139547;-68
2023/10/20 20:10:58;;;;;;;10.80;8.20;;;;;;;7.52;93.99;97566.39;218284;1260;140045;-68
2023/10/20 20:16:12;;;;;;;11.20;8.40;;;;;;;7.57;94.32;97561.30;219244;1260;139586;-68
2023/10/20 20:21:17;;;;;;;8.90;7.00;;;;;;;7.60;94.03;97547.34;219054;1257;141607;-69
2023/10/20 20:26:24;;;;;;;15.10;8.10;;;;;;;7.63;94.39;97544.48;218175;1260;141163;-68
2023/10/20 20:31:29;;;;;;;13.00;8.40;;;;;;;7.67;94.65;97544.86;218514;1257;140256;-68
2023/10/20 20:36:37;;;;;;;15.50;9.30;;;;;;;7.70;94.55;97547.20;217234;1258;141956;-68
2023/10/20 20:41:42;;;;;;;16.80;9.60;;;;;;;7.71;94.73;97546.19;217753;1258;140488;-69
2023/10/20 20:46:48;;;;;;;13.90;9.20;;;;;;;7.72;94.57;97539.66;218207;1258;140253;-68
2023/10/20 20:51:53;;;;;;;13.50;9.50;;;;;;;7.74;94.78;97531.59;217588;1258;140040;-69
2023/10/20 20:56:58;;;;;;;13.60;9.10;;;;;;;7.76;94.69;97536.69;218076;1258;140227;-69
2023/10/20 21:02:05;;;;;;;15.80;9.50;;;;;;;7.77;95.27;97544.64;219017;1259;140135;-70
2023/10/20 21:07:09;;;;;;;19.00;12.10;;;;;;;7.79;95.06;97543.47;217916;1257;139628;-70
2023/10/20 21:12:14;;;;;;;14.70;9.80;;;;;;;7.83;95.22;97539.53;217994;1257;140363;-68
2023/10/20 21:17:19;;;;;;;16.20;10.40;;;;;;;7.87;95.32;97547.21;218003;1259;139892;-71
2023/10/20 21:22:23;;;;;;;17.50;12.00;;;;;;;7.90;95.22;97539.89;219416;1259;140388;-68
2023/10/20 21:27:28;;;;;;;15.80;10.70;;;;;;;7.94;95.29;97544.39;217741;1262;139790;-67
2023/10/20 21:32:33;;;;;;;17.20;10.70;;;;;;;7.99;95.48;97549.44;219546;1260;140841;-68
2023/10/20 21:37:38;;;;;;;17.80;10.90;;;;;;;8.03;95.62;97542.59;217586;1262;140009;-69
2023/10/20 21:42:42;;;;;;;16.00;11.00;;;;;;;8.06;95.58;97527.77;219705;1258;140394;-69
2023/10/20 21:47:47;;;;;;;16.00;10.30;;;;;;;8.09;95.38;97515.34;219014;1261;140970;-69
2023/10/20 21:52:51;;;;;;;17.90;10.20;;;;;;;8.14;95.40;97524.88;220152;1257;140211;-70
2023/10/20 21:57:56;;;;;;;13.00;9.00;;;;;;;8.19;95.59;97520.60;219920;1260;140674;-70
2023/10/20 22:03:00;;;;;;;17.90;11.40;;;;;;;8.23;95.52;97515.70;220240;1261;140407;-71
2023/10/20 22:08:05;;;;;;;14.10;10.00;;;;;;;8.29;95.48;97504.19;219925;1261;139903;-70
2023/10/20 22:13:09;;;;;;;14.70;10.90;;;;;;;8.33;95.47;97509.39;217930;1262;140215;-70
2023/10/20 22:18:14;;;;;;;14.90;10.00;;;;;;;8.37;95.58;97520.05;219361;1262;140721;-70
2023/10/20 22:23:19;;;;;;;12.90;10.20;;;;;;;8.39;95.71;97526.63;217387;1262;140474;-70
2023/10/20 22:28:23;;;;;;;15.60;11.20;;;;;;;8.42;95.64;97534.69;218847;1257;140543;-69
2023/10/20 22:33:28;;;;;;;14.30;10.10;;;;;;;8.45;95.94;97526.60;218710;1262;140367;-69
2023/10/20 22:38:33;;;;;;;17.40;10.70;;;;;;;8.48;95.75;97526.00;217986;1258;139742;-72
2023/10/20 22:43:38;;;;;;;18.20;11.00;;;;;;;8.50;95.84;97528.48;218422;1262;139936;-70
2023/10/20 22:48:42;;;;;;;16.00;10.80;;;;;;;8.51;95.97;97536.50;217964;1257;141119;-70
2023/10/20 22:53:46;;;;;;;17.30;11.80;;;;;;;8.53;95.87;97536.23;218337;1261;141319;-69
2023/10/20 22:58:51;;;;;;;17.00;11.80;;;;;;;8.54;96.02;97537.82;217840;1257;141219;-69
2023/10/20 23:03:56;;;;;;;23.90;12.80;;;;;;;8.57;96.11;97539.20;218350;1262;139951;-67
2023/10/20 23:09:00;;;;;;;18.60;12.30;;;;;;;8.61;96.35;97545.98;218065;1257;140157;-72
2023/10/20 23:14:04;;;;;;;16.70;11.90;;;;;;;8.64;96.24;97540.82;218032;1258;142560;-72
2023/10/20 23:19:09;;;;;;;15.30;11.30;;;;;;;8.65;96.21;97538.79;218527;1257;140450;-72
2023/10/20 23:24:13;;;;;;;18.70;12.00;;;;;;;8.66;96.19;97532.98;218834;1258;139921;-75
2023/10/20 23:29:23;;;;;;;18.80;12.20;;;;;;;8.68;96.20;97538.98;217947;1258;139850;-73
2023/10/20 23:34:27;;;;;;;17.60;11.50;;;;;;;8.71;96.17;97539.70;218830;1258;140405;-69
2023/10/20 23:39:32;;;;;;;23.30;11.70;;;;;;;8.73;96.23;97537.09;218682;1257;141038;-68
2023/10/20 23:44:38;;;;;;;17.50;13.00;;;;;;;8.74;96.32;97533.59;219362;1257;140503;-69